N5ZKK Weather Reports


Display with metric or nautical units.
time (UTC)temp
F
wind
direction
speed
MPH
gust
MPH
rain 1hr
in
rain 24hr
in
rain mn
in
humidity
%
barometer
mb
20240301001026 50 33 1.0 2.0 0.00 0.00 0.00 55 1022.6
20240301000446 49 161 0.0 2.0 0.00 0.00 0.00 54 1023.4
20240301000030 50 161 1.0 2.0 0.00 0.00 0.00 55 1022.6
20240229235044 50 60 1.0 2.0 0.00 0.00 0.00 54 1022.5
20240229234554 50 122 1.0 2.0 0.00 0.00 0.00 54 1023.2
20240229234022 51 123 1.0 2.0 0.00 0.00 0.00 54 1022.5
20240229233017 51 221 2.0 3.0 0.00 0.00 0.00 54 1022.7
20240229232026 51 122 2.0 4.0 0.00 0.00 0.00 54 1022.5
20240229231554 51 84 1.0 2.0 0.00 0.00 0.00 53 1023.2
20240229231027 51 85 1.0 2.0 0.00 0.00 0.00 53 1022.6
20240229230043 51 57 2.0 3.0 0.00 0.00 0.00 53 1022.7
20240229225045 50 178 1.0 2.0 0.00 0.00 0.00 54 1022.7
20240229224554 50 23 1.0 2.0 0.00 0.00 0.00 54 1023.4
20240229224046 50 24 2.0 3.0 0.00 0.00 0.00 55 1022.7
20240229223109 51 79 2.0 2.0 0.00 0.00 0.00 54 1022.9
20240229222112 50 139 1.0 2.0 0.00 0.00 0.00 55 1022.9
20240229221554 50 112 0.0 2.0 0.00 0.00 0.00 54 1023.9
20240229221031 50 113 1.0 3.0 0.00 0.00 0.00 54 1023.1
20240229220028 50 82 0.0 2.0 0.00 0.00 0.00 54 1023.2
20240229215049 49 112 2.0 3.0 0.00 0.00 0.00 55 1023.3
20240229214554 49 84 1.0 2.0 0.00 0.00 0.00 53 1024.2
20240229214031 50 84 1.0 3.0 0.00 0.00 0.00 53 1023.5
20240229213027 50 0.0 0.0 0.00 0.00 0.00 52 1023.6
20240229212016 50 67 2.0 3.0 0.00 0.00 0.00 52 1023.8
20240229211554 49 45 1.0 3.0 0.00 0.00 0.00 52 1024.5
20240229211018 49 45 1.0 3.0 0.00 0.00 0.00 53 1023.7
20240229210023 49 38 1.0 2.0 0.00 0.00 0.00 52 1023.7
20240229205554 49 45 2.0 3.0 0.00 0.00 0.00 51 1024.6
20240229205021 49 45 2.0 4.0 0.00 0.00 0.00 52 1023.8
20240229204043 49 167 1.0 3.0 0.00 0.00 0.00 52 1023.9
20240229203554 49 135 0.0 2.0 0.00 0.00 0.00 51 1024.9
20240229203025 50 135 1.0 2.0 0.00 0.00 0.00 51 1024.1
20240229202554 49 106 2.0 4.0 0.00 0.00 0.00 52 1025.0
20240229202047 49 106 3.0 4.0 0.00 0.00 0.00 52 1024.1
20240229201554 48 79 2.0 3.0 0.00 0.00 0.00 51 1025.3
20240229201054 48 94 2.0 4.0 0.00 0.00 0.00 50 1025.3
20240229201028 49 80 2.0 4.0 0.00 0.00 0.00 51 1024.2
20240229200127 49 88 1.0 4.0 0.00 0.00 0.00 51 1024.5
20240229195027 48 34 2.0 3.0 0.00 0.00 0.00 50 1024.6
20240229194716 48 67 1.0 4.0 0.00 0.00 0.00 50 1025.7
20240229194029 48 78 3.0 5.0 0.00 0.00 0.00 50 1024.8
20240229193026 48 115 2.0 4.0 0.00 0.00 0.00 51 1025.0
20240229192028 48 93 3.0 5.0 0.00 0.00 0.00 52 1025.3
20240229191716 47 124 2.0 4.0 0.00 0.00 0.00 51 1026.3
20240229191030 47 127 2.0 5.0 0.00 0.00 0.00 52 1025.4
20240229190025 47 62 3.0 5.0 0.00 0.00 0.00 50 1025.6
20240229185015 48 74 4.0 7.0 0.00 0.00 0.00 48 1025.9
20240229184716 47 60 1.0 4.0 0.00 0.00 0.00 47 1027.0
20240229184019 48 128 3.0 5.0 0.00 0.00 0.00 48 1026.0
20240229183019 48 111 3.0 4.0 0.00 0.00 0.00 49 1026.1
20240229182023 48 98 2.0 4.0 0.00 0.00 0.00 48 1026.3
20240229181716 47 105 2.0 4.0 0.00 0.00 0.00 48 1027.4
20240229181023 47 69 3.0 6.0 0.00 0.00 0.00 48 1026.5
20240229180025 46 95 4.0 7.0 0.00 0.00 0.00 49 1026.5
20240229175027 47 93 3.0 6.0 0.00 0.00 0.00 47 1026.6
20240229174716 46 95 3.0 6.0 0.00 0.00 0.00 47 1027.9
20240229174029 47 99 4.0 7.0 0.00 0.00 0.00 47 1026.7
20240229173051 46 112 4.0 7.0 0.00 0.00 0.00 48 1026.7
20240229172033 46 65 3.0 5.0 0.00 0.00 0.00 50 1027.1
20240229171716 45 96 3.0 5.0 0.00 0.00 0.00 49 1028.4
20240229171017 46 85 3.0 5.0 0.00 0.00 0.00 50 1027.0
20240229170019 45 76 4.0 6.0 0.00 0.00 0.00 50 1027.0
20240229165041 45 95 4.0 6.0 0.00 0.00 0.00 51 1027.1
20240229164716 44 70 3.0 5.0 0.00 0.00 0.00 51 1028.5
20240229164022 44 81 3.0 5.0 0.00 0.00 0.00 52 1027.1
20240229163023 44 80 3.0 8.0 0.00 0.00 0.00 53 1027.1
20240229162030 43 89 3.0 6.0 0.00 0.00 0.00 54 1027.4
20240229161716 43 50 4.0 6.0 0.00 0.00 0.00 54 1029.0
20240229161036 43 35 4.0 6.0 0.00 0.00 0.00 54 1027.5
20240229160046 43 46 4.0 6.0 0.00 0.00 0.00 55 1027.6
20240229155027 43 51 4.0 6.0 0.00 0.00 0.00 57 1027.4
20240229154716 42 69 2.0 4.0 0.00 0.00 0.00 57 1029.3
20240229154028 42 52 3.0 6.0 0.00 0.00 0.00 59 1027.6
20240229153029 42 54 4.0 6.0 0.00 0.00 0.00 59 1027.5
20240229152031 42 42 2.0 3.0 0.00 0.00 0.00 60 1027.4
20240229151716 42 71 3.0 4.0 0.00 0.00 0.00 59 1029.2
20240229151029 42 57 3.0 5.0 0.00 0.00 0.00 61 1027.5
20240229150031 41 47 3.0 5.0 0.00 0.00 0.00 63 1027.6
20240229145031 40 50 3.0 5.0 0.00 0.00 0.00 64 1027.6
20240229144716 40 38 1.0 2.0 0.00 0.00 0.00 65 1029.3
20240229144033 40 55 2.0 5.0 0.00 0.00 0.00 66 1027.3
20240229143017 39 45 3.0 6.0 0.00 0.00 0.00 66 1027.4
20240229142019 39 40 4.0 6.0 0.00 0.00 0.00 67 1027.3
20240229141716 39 33 2.0 4.0 0.00 0.00 0.00 68 1029.3
20240229141021 39 38 1.0 4.0 0.00 0.00 0.00 69 1027.3
20240229140023 39 45 4.0 6.0 0.00 0.00 0.00 69 1027.4
20240229135019 39 38 3.0 6.0 0.00 0.00 0.00 69 1027.3
20240229134716 39 34 3.0 6.0 0.00 0.00 0.00 69 1029.2
20240229134027 39 28 3.0 5.0 0.00 0.00 0.00 70 1027.1
20240229133109 39 35 3.0 4.0 0.00 0.00 0.00 72 1026.9
20240229132032 39 43 3.0 4.0 0.00 0.00 0.00 72 1026.6
20240229131716 38 54 1.0 3.0 0.00 0.00 0.00 73 1028.8
20240229131017 39 63 3.0 7.0 0.00 0.00 0.00 73 1026.6
20240229130023 39 39 2.0 4.0 0.00 0.00 0.00 74 1026.5
20240229125021 39 24 4.0 5.0 0.00 0.00 0.00 73 1026.4
20240229124716 38 50 3.0 5.0 0.00 0.00 0.00 72 1028.6
20240229124043 39 44 4.0 7.0 0.00 0.00 0.00 71 1025.9
20240229123023 39 35 5.0 7.0 0.00 0.00 0.00 71 1026.0
20240229122026 40 58 4.0 6.0 0.00 0.00 0.00 68 1025.9
20240229121716 39 51 4.0 7.0 0.00 0.00 0.00 67 1027.9
20240229121026 40 28 4.0 8.0 0.00 0.00 0.00 66 1026.0
20240229120028 40 30 4.0 7.0 0.00 0.00 0.00 64 1026.0
20240229115031 40 43 4.0 6.0 0.00 0.00 0.00 64 1025.9
20240229114716 39 52 6.0 9.0 0.00 0.00 0.00 63 1027.6
20240229114047 40 57 6.0 10.0 0.00 0.00 0.00 63 1025.6
20240229113016 40 75 5.0 8.0 0.00 0.00 0.00 63 1027.1
20240229112059 41 25 2.0 4.0 0.00 0.00 0.00 63 1026.6
20240229111716 40 356 3.0 6.0 0.00 0.00 0.00 61 1028.5
20240229111033 41 29 4.0 6.0 0.00 0.00 0.00 61 1026.8
20240229110016 41 26 3.0 5.0 0.00 0.00 0.00 61 1026.9
20240229105018 41 74 4.0 6.0 0.00 0.00 0.00 60 1026.6
20240229104716 40 31 2.0 5.0 0.00 0.00 0.00 59 1028.0
20240229104042 41 358 2.0 6.0 0.00 0.00 0.00 59 1026.0
20240229103022 41 78 2.0 3.0 0.00 0.00 0.00 59 1025.9
20240229102019 41 38 4.0 7.0 0.00 0.00 0.00 58 1026.2
20240229101716 41 64 4.0 7.0 0.00 0.00 0.00 57 1028.1
20240229101022 41 41 4.0 6.0 0.00 0.00 0.00 56 1026.3
20240229100023 41 45 4.0 7.0 0.00 0.00 0.00 55 1026.6
20240229095021 42 58 4.0 5.0 0.00 0.00 0.00 54 1027.1
20240229094716 41 66 1.0 4.0 0.00 0.00 0.00 53 1028.3
20240229094016 42 42 4.0 6.0 0.00 0.00 0.00 53 1026.3
20240229093038 42 54 3.0 4.0 0.00 0.00 0.00 52 1026.9
20240229092020 42 62 4.0 6.0 0.00 0.00 0.00 50 1027.8
20240229091716 42 46 4.0 6.0 0.00 0.00 0.00 50 1029.5
20240229091018 42 38 3.0 6.0 0.00 0.00 0.00 50 1027.4
20240229090022 42 60 2.0 5.0 0.00 0.00 0.00 49 1027.1
20240229085020 42 92 3.0 4.0 0.00 0.00 0.00 49 1027.1
20240229084716 42 70 1.0 3.0 0.00 0.00 0.00 48 1028.7
20240229084038 42 61 1.0 2.0 0.00 0.00 0.00 49 1026.9
20240229083024 42 149 2.0 4.0 0.00 0.00 0.00 51 1026.4
20240229082026 42 62 3.0 7.0 0.00 0.00 0.00 53 1027.1
20240229081716 41 64 2.0 4.0 0.00 0.00 0.00 54 1028.9
20240229081028 42 48 3.0 4.0 0.00 0.00 0.00 53 1027.5
20240229080044 42 17 1.0 3.0 0.00 0.00 0.00 53 1027.8
20240229075041 42 54 2.0 3.0 0.00 0.00 0.00 53 1027.8
20240229074716 41 60 1.0 3.0 0.00 0.00 0.00 53 1029.7
20240229074023 42 23 0.0 2.0 0.00 0.00 0.00 53 1027.9
20240229073025 42 35 1.0 2.0 0.00 0.00 0.00 55 1027.8
20240229072021 42 64 1.0 3.0 0.00 0.00 0.00 55 1028.3
20240229071716 41 7 0.0 3.0 0.00 0.00 0.00 54 1030.1
20240229071023 42 257 0.0 3.0 0.00 0.00 0.00 55 1027.9
20240229070025 42 359 3.0 4.0 0.00 0.00 0.00 54 1027.8
20240229065043 42 36 5.0 9.0 0.00 0.00 0.00 53 1028.3
20240229064716 42 29 2.0 4.0 0.00 0.00 0.00 52 1029.9
20240229064023 42 349 3.0 4.0 0.00 0.00 0.00 51 1028.2
20240229063025 42 21 5.0 7.0 0.00 0.00 0.00 52 1029.0
20240229062106 42 58 3.0 5.0 0.00 0.00 0.00 54 1029.2
20240229061716 42 21 2.0 3.0 0.00 0.00 0.00 53 1031.0
20240229061018 42 19 2.0 5.0 0.00 0.00 0.00 52 1029.4
20240229060026 43 350 3.0 4.0 0.00 0.00 0.00 53 1029.6
20240229055055 43 14 3.0 5.0 0.00 0.00 0.00 52 1029.9
20240229054716 42 8 1.0 3.0 0.00 0.00 0.00 52 1031.9
20240229054027 43 342 2.0 4.0 0.00 0.00 0.00 52 1030.2
20240229053039 43 345 2.0 5.0 0.00 0.00 0.00 51 1029.8
20240229052017 43 20 3.0 5.0 0.00 0.00 0.00 50 1030.0
20240229051716 42 23 2.0 4.0 0.00 0.00 0.00 50 1031.8
20240229051019 43 29 3.0 4.0 0.00 0.00 0.00 51 1030.1
20240229050039 43 36 2.0 4.0 0.00 0.00 0.00 51 1030.1
20240229045030 43 20 3.0 7.0 0.00 0.00 0.00 50 1030.0
20240229044716 42 7 2.0 3.0 0.00 0.00 0.00 50 1031.4
20240229044055 43 24 4.0 6.0 0.00 0.00 0.00 50 1029.7
20240229043016 43 26 3.0 6.0 0.00 0.00 0.00 49 1030.4
20240229042032 43 340 2.0 4.0 0.00 0.00 0.00 49 1029.8
20240229041716 43 353 3.0 3.0 0.00 0.00 0.00 48 1031.4
20240229041023 43 13 4.0 6.0 0.00 0.00 0.00 49 1029.8
20240229040122 43 2 3.0 5.0 0.00 0.00 0.00 49 1029.9
20240229035027 43 21 3.0 6.0 0.00 0.00 0.00 48 1029.8
20240229034716 43 16 3.0 4.0 0.00 0.00 0.00 48 1031.4
20240229034017 43 14 3.0 5.0 0.00 0.00 0.00 48 1029.8
20240229033019 43 17 2.0 3.0 0.00 0.00 0.00 49 1029.6
20240229032021 43 4 3.0 4.0 0.00 0.00 0.00 48 1029.0
20240229031716 43 33 4.0 5.0 0.00 0.00 0.00 48 1030.6
20240229031018 43 27 4.0 6.0 0.00 0.00 0.00 48 1029.0
20240229030032 44 23 4.0 6.0 0.00 0.00 0.00 48 1029.0
20240229025019 44 27 3.0 6.0 0.00 0.00 0.00 47 1029.0
20240229024716 43 36 4.0 6.0 0.00 0.00 0.00 48 1030.6
20240229024038 44 29 4.0 7.0 0.00 0.00 0.00 47 1029.0
20240229023019 44 26 5.0 7.0 0.00 0.00 0.00 48 1029.0
20240229022021 44 31 2.0 6.0 0.00 0.00 0.00 48 1028.5
20240229021716 44 330 1.0 3.0 0.00 0.00 0.00 47 1030.0
20240229021023 44 28 3.0 6.0 0.00 0.00 0.00 45 1028.3
20240229020025 44 19 3.0 5.0 0.00 0.00 0.00 43 1028.3
20240229015022 45 16 4.0 6.0 0.00 0.00 0.00 43 1028.6
20240229014716 44 33 3.0 6.0 0.00 0.00 0.00 44 1029.9
20240229014018 45 32 2.0 4.0 0.00 0.00 0.00 44 1028.4
20240229013020 45 21 5.0 10.0 0.00 0.00 0.00 44 1028.6
20240229012017 45 30 5.0 9.0 0.00 0.00 0.00 45 1028.3
20240229011716 45 25 6.0 10.0 0.00 0.00 0.00 45 1029.7
20240229011026 45 14 6.0 10.0 0.00 0.00 0.00 45 1028.2
20240229010023 46 24 6.0 9.0 0.00 0.00 0.00 45 1028.1
20240229005019 46 26 4.0 6.0 0.00 0.00 0.00 46 1028.1
20240229004716 45 27 4.0 6.0 0.00 0.00 0.00 46 1029.2
20240229004021 46 19 3.0 5.0 0.00 0.00 0.00 46 1027.9
20240229003017 47 16 4.0 7.0 0.00 0.00 0.00 44 1027.8
20240229002032 47 32 6.0 11.0 0.00 0.00 0.00 44 1027.8
20240229001716 47 354 4.0 9.0 0.00 0.00 0.00 44 1028.9